Time;durP1;ratioP1;P1;durP2;ratioP2;P2;SDS_P1;SDS_P2;PMS_P1;PMS_P2;Temp;Humidity;BMP_temperature;BMP_pressure;BME280_temperature;BME280_humidity;BME280_pressure;Samples;Min_cycle;Max_cycle;Signal;HPM_P1;HPM_P2
2022/04/11 00:01:30;;;;;;;31.10;14.57;;;2.90;99.90;;;;;;10370252;28;20054;-80
2022/04/11 00:06:31;;;;;;;29.53;14.33;;;2.90;99.90;;;;;;10370483;28;20037;-81
2022/04/11 00:11:32;;;;;;;32.63;17.40;;;2.80;99.90;;;;;;10370454;28;20375;-80
2022/04/11 00:16:32;;;;;;;42.23;20.20;;;2.70;99.90;;;;;;10370080;28;20141;-80
2022/04/11 00:21:33;;;;;;;40.93;21.27;;;2.70;99.90;;;;;;10369206;28;20729;-80
2022/04/11 00:26:33;;;;;;;44.53;22.20;;;2.70;99.90;;;;;;10369170;28;20069;-80
2022/04/11 00:31:34;;;;;;;51.80;27.97;;;2.70;99.90;;;;;;10369324;28;20037;-80
2022/04/11 00:36:34;;;;;;;49.67;26.37;;;2.70;99.90;;;;;;10369329;28;20397;-80
2022/04/11 00:41:35;;;;;;;34.53;17.40;;;2.70;99.90;;;;;;10368007;28;20034;-80
2022/04/11 00:46:36;;;;;;;37.10;22.03;;;2.70;99.90;;;;;;10367212;28;20107;-81
2022/04/11 00:51:38;;;;;;;32.90;21.03;;;2.70;99.90;;;;;;10369085;28;20393;-80
2022/04/11 00:56:39;;;;;;;38.47;24.17;;;2.70;99.90;;;;;;10368463;28;20029;-80
2022/04/11 01:01:39;;;;;;;33.87;18.50;;;2.70;99.90;;;;;;10367756;28;20054;-80
2022/04/11 01:06:40;;;;;;;31.63;18.00;;;2.60;99.90;;;;;;10368185;28;20402;-80
2022/04/11 01:11:41;;;;;;;36.70;19.70;;;2.50;99.90;;;;;;10368034;28;20025;-80
2022/04/11 01:16:48;;;;;;;35.27;18.63;;;2.40;99.90;;;;;;10367242;28;20036;-80
2022/04/11 01:21:49;;;;;;;34.47;21.20;;;2.30;99.90;;;;;;10366977;28;20389;-82
2022/04/11 01:26:50;;;;;;;32.40;18.73;;;2.20;99.90;;;;;;10367716;28;20108;-80
2022/04/11 01:31:51;;;;;;;32.67;18.63;;;2.10;99.90;;;;;;10367430;28;20088;-80
2022/04/11 01:36:52;;;;;;;30.40;16.87;;;2.00;99.90;;;;;;10367136;28;20038;-80
2022/04/11 01:41:52;;;;;;;36.27;21.10;;;1.90;99.90;;;;;;10366894;28;20045;-81
2022/04/11 01:46:53;;;;;;;33.63;20.43;;;1.80;99.90;;;;;;10366145;28;20052;-80
2022/04/11 01:51:53;;;;;;;33.77;18.40;;;1.80;99.90;;;;;;10367864;28;20114;-81
2022/04/11 01:56:54;;;;;;;32.10;17.47;;;1.70;99.90;;;;;;10366439;28;20061;-81
2022/04/11 02:01:54;;;;;;;35.80;17.40;;;1.80;99.90;;;;;;10365773;28;20054;-80
2022/04/11 02:06:55;;;;;;;30.93;18.50;;;1.80;99.90;;;;;;10366667;28;20173;-80
2022/04/11 02:11:56;;;;;;;34.47;18.97;;;1.90;99.90;;;;;;10366884;28;20045;-81
2022/04/11 02:16:57;;;;;;;38.57;21.00;;;1.90;99.90;;;;;;10372647;28;20038;-80
2022/04/11 02:21:57;;;;;;;37.33;21.97;;;2.00;99.90;;;;;;10374089;28;20038;-80
2022/04/11 02:26:58;;;;;;;38.07;21.20;;;2.00;99.90;;;;;;10375163;28;20048;-80
2022/04/11 02:31:58;;;;;;;52.47;29.37;;;2.00;99.90;;;;;;10373996;28;20034;-80
2022/04/11 02:36:59;;;;;;;56.10;31.60;;;2.00;99.90;;;;;;10373331;28;20474;-80
2022/04/11 02:42:00;;;;;;;54.07;29.83;;;2.10;99.90;;;;;;10373949;28;20588;-82
2022/04/11 02:47:00;;;;;;;52.27;28.37;;;2.10;99.90;;;;;;10372295;28;20401;-82
2022/04/11 02:52:01;;;;;;;43.30;22.57;;;2.10;99.90;;;;;;10373003;28;20026;-80
2022/04/11 02:57:02;;;;;;;39.33;21.97;;;2.20;99.90;;;;;;10372409;28;20080;-81
2022/04/11 03:02:04;;;;;;;30.00;18.10;;;2.20;99.90;;;;;;10374526;28;20054;-80
2022/04/11 03:07:05;;;;;;;32.70;15.20;;;2.30;99.90;;;;;;10405288;28;20040;-83
2022/04/11 03:12:06;;;;;;;33.70;16.93;;;2.30;99.90;;;;;;10391803;28;20026;-80
2022/04/11 03:17:07;;;;;;;32.23;13.83;;;2.40;99.90;;;;;;10372548;28;20053;-80
2022/04/11 03:22:08;;;;;;;28.50;13.43;;;2.40;99.90;;;;;;10371750;28;20033;-80
2022/04/11 03:27:09;;;;;;;25.20;13.70;;;2.50;99.90;;;;;;10370915;28;20038;-80
2022/04/11 03:32:09;;;;;;;25.53;13.10;;;2.50;99.90;;;;;;10371200;28;20034;-82
2022/04/11 03:37:10;;;;;;;23.77;10.97;;;2.60;99.90;;;;;;10370975;28;20045;-84
2022/04/11 03:42:10;;;;;;;26.57;12.67;;;2.60;99.90;;;;;;10354064;28;20045;-81
2022/04/11 03:47:11;;;;;;;22.10;10.20;;;2.60;99.90;;;;;;10369587;28;20033;-81
2022/04/11 03:52:12;;;;;;;18.70;9.77;;;2.60;99.90;;;;;;10370863;28;20037;-80
2022/04/11 03:57:12;;;;;;;19.73;9.77;;;2.60;99.90;;;;;;10358454;28;20033;-81
2022/04/11 04:02:13;;;;;;;21.00;9.47;;;2.60;99.90;;;;;;10365378;28;20062;-81
2022/04/11 04:07:14;;;;;;;19.90;9.50;;;2.50;99.90;;;;;;10370635;28;20462;-81
2022/04/11 04:12:20;;;;;;;18.30;8.37;;;2.40;99.90;;;;;;10370561;28;20033;-79
2022/04/11 04:17:21;;;;;;;13.30;8.27;;;2.30;99.90;;;;;;10369312;28;20033;-82
2022/04/11 04:22:21;;;;;;;17.70;9.07;;;2.10;99.90;;;;;;10355338;28;20540;-82
2022/04/11 04:27:22;;;;;;;18.97;8.23;;;2.10;99.90;;;;;;10337115;28;20040;-81
2022/04/11 04:32:23;;;;;;;18.43;8.40;;;2.00;99.90;;;;;;10359891;28;20022;-82
2022/04/11 04:37:23;;;;;;;19.43;9.77;;;2.00;99.90;;;;;;10354245;28;20470;-81
2022/04/11 04:42:28;;;;;;;26.87;11.70;;;1.90;99.90;;;;;;10342534;28;20133;-82
2022/04/11 04:47:28;;;;;;;36.73;19.63;;;1.90;99.90;;;;;;10342239;28;20040;-80
2022/04/11 04:52:30;;;;;;;47.77;23.00;;;1.90;99.90;;;;;;10343144;28;20101;-80
2022/04/11 04:57:31;;;;;;;56.57;28.27;;;1.90;99.90;;;;;;10340208;28;20022;-81
2022/04/11 05:02:36;;;;;;;28.87;14.77;;;2.00;99.90;;;;;;10343722;28;20107;-80
2022/04/11 05:07:37;;;;;;;29.57;14.53;;;2.00;99.90;;;;;;10332907;28;20034;-82
2022/04/11 05:12:42;;;;;;;27.57;13.17;;;2.10;99.90;;;;;;10357896;28;20044;-81
2022/04/11 05:17:42;;;;;;;27.17;14.43;;;2.20;99.90;;;;;;10367079;28;20029;-83
2022/04/11 05:22:43;;;;;;;22.13;11.70;;;2.30;99.90;;;;;;10365164;28;20164;-81
2022/04/11 05:27:43;;;;;;;16.83;9.60;;;2.50;99.90;;;;;;10368526;28;20036;-82
2022/04/11 05:32:44;;;;;;;19.43;9.70;;;2.60;99.90;;;;;;10366629;28;20695;-81
2022/04/11 05:37:45;;;;;;;20.27;11.17;;;2.60;99.90;;;;;;10366497;28;20497;-80
2022/04/11 05:42:45;;;;;;;26.60;13.63;;;2.70;99.90;;;;;;10367596;28;20026;-82
2022/04/11 05:47:46;;;;;;;29.60;16.17;;;2.80;99.90;;;;;;10367682;28;20046;-81
2022/04/11 05:52:46;;;;;;;42.10;18.67;;;2.90;99.90;;;;;;10380380;28;20044;-80
2022/04/11 05:57:47;;;;;;;30.20;14.73;;;3.00;99.90;;;;;;10380644;28;20038;-80
2022/04/11 06:02:48;;;;;;;31.30;15.10;;;3.20;99.90;;;;;;10380658;28;20054;-80
2022/04/11 06:07:48;;;;;;;22.60;11.53;;;3.30;99.90;;;;;;10380210;28;20426;-81
2022/04/11 06:12:50;;;;;;;20.80;10.73;;;3.40;99.90;;;;;;10379926;28;20037;-81
2022/04/11 06:17:50;;;;;;;17.93;9.53;;;3.60;99.90;;;;;;10381114;28;20026;-83
2022/04/11 06:22:51;;;;;;;30.83;12.90;;;3.80;99.90;;;;;;10379509;28;20516;-81
2022/04/11 06:27:51;;;;;;;29.23;13.77;;;4.10;99.90;;;;;;10380569;28;20030;-85
2022/04/11 06:32:52;;;;;;;25.40;10.60;;;4.50;99.90;;;;;;10380210;28;20026;-83
2022/04/11 06:37:53;;;;;;;16.67;8.30;;;4.80;99.90;;;;;;10378570;28;20033;-81
2022/04/11 06:42:54;;;;;;;23.80;12.10;;;4.90;99.90;;;;;;10378763;28;20424;-80
2022/04/11 06:47:55;;;;;;;20.40;10.33;;;4.90;99.90;;;;;;10379826;28;20042;-80
2022/04/11 06:52:55;;;;;;;22.80;12.87;;;5.10;99.90;;;;;;10378757;28;20030;-81
2022/04/11 06:57:56;;;;;;;38.50;18.23;;;5.10;99.90;;;;;;10380066;28;20045;-81
2022/04/11 07:02:57;;;;;;;40.27;22.23;;;5.20;99.90;;;;;;10372795;28;20498;-81
2022/04/11 07:07:58;;;;;;;26.47;13.07;;;5.40;99.90;;;;;;10372522;28;20049;-83
2022/04/11 07:12:59;;;;;;;33.90;17.50;;;5.40;99.90;;;;;;10372167;28;20107;-81
2022/04/11 07:18:00;;;;;;;24.37;13.33;;;5.30;99.90;;;;;;10372753;28;20037;-82
2022/04/11 07:23:00;;;;;;;29.73;16.60;;;5.30;99.90;;;;;;10373127;28;20041;-82
2022/04/11 07:28:01;;;;;;;25.70;14.13;;;5.60;99.90;;;;;;10372648;28;20563;-82
2022/04/11 07:33:02;;;;;;;37.53;17.93;;;6.00;99.90;;;;;;10371462;28;20030;-81
2022/04/11 07:38:03;;;;;;;18.40;9.70;;;6.40;99.90;;;;;;10365813;28;20058;-81
2022/04/11 07:43:03;;;;;;;17.97;9.20;;;6.80;99.90;;;;;;10366201;28;20050;-82
2022/04/11 07:48:04;;;;;;;21.33;9.20;;;7.00;99.90;;;;;;10371606;28;20026;-82
2022/04/11 07:53:05;;;;;;;30.50;13.43;;;7.00;99.90;;;;;;10364848;28;20044;-83
2022/04/11 07:58:06;;;;;;;19.53;7.73;;;6.90;99.90;;;;;;10334550;28;20514;-82
2022/04/11 08:03:06;;;;;;;26.50;13.43;;;6.80;99.90;;;;;;10328037;28;20050;-81
2022/04/11 08:08:07;;;;;;;12.50;6.10;;;6.70;99.90;;;;;;10362953;28;20030;-81
2022/04/11 08:13:08;;;;;;;22.03;10.90;;;6.70;99.90;;;;;;10369787;28;20048;-83
2022/04/11 08:18:08;;;;;;;15.17;10.60;;;6.70;99.90;;;;;;10369774;28;20025;-80
2022/04/11 08:23:09;;;;;;;43.60;22.30;;;6.70;99.90;;;;;;10369343;28;20061;-81
2022/04/11 08:28:10;;;;;;;25.30;12.47;;;6.60;99.90;;;;;;10369670;28;20022;-80
2022/04/11 08:33:11;;;;;;;21.40;10.87;;;6.30;99.90;;;;;;10369705;28;20045;-82
2022/04/11 08:38:12;;;;;;;17.80;10.50;;;6.40;99.90;;;;;;10369575;28;20033;-80
2022/04/11 08:43:13;;;;;;;16.27;8.20;;;6.80;99.90;;;;;;10369114;28;20049;-80
2022/04/11 08:48:14;;;;;;;16.20;8.50;;;7.30;99.90;;;;;;10369453;28;20014;-80
2022/04/11 08:53:20;;;;;;;16.03;8.53;;;7.70;99.90;;;;;;10368570;28;20659;-80
2022/04/11 08:58:21;;;;;;;12.23;5.80;;;7.70;98.40;;;;;;10369074;28;20120;-82
2022/04/11 09:03:22;;;;;;;20.17;11.87;;;7.80;99.00;;;;;;10367687;28;20053;-80
2022/04/11 09:08:42;;;;;;;15.70;6.73;;;7.70;97.70;;;;;;10368358;28;20041;-81
2022/04/11 09:13:51;;;;;;;12.13;6.43;;;7.90;97.10;;;;;;10369244;28;20029;-80
2022/04/11 09:18:53;;;;;;;11.33;5.83;;;8.00;95.40;;;;;;10368393;28;20025;-79
2022/04/11 09:24:13;;;;;;;20.53;9.37;;;8.30;96.00;;;;;;10367117;28;20041;-82
2022/04/11 09:29:17;;;;;;;14.37;7.00;;;8.80;91.80;;;;;;10368192;28;20513;-82
2022/04/11 09:34:25;;;;;;;14.90;7.00;;;8.50;91.90;;;;;;10367859;28;20384;-81
2022/04/11 09:39:31;;;;;;;31.43;14.33;;;8.30;92.50;;;;;;10366868;28;20121;-81
2022/04/11 09:44:33;;;;;;;;;;;8.20;92.50;;;;;;10367284;28;20071;-79
2022/04/11 09:49:34;;;;;;;12.83;6.90;;;8.00;93.00;;;;;;10367794;28;20345;-81
2022/04/11 09:54:40;;;;;;;10.13;5.53;;;8.10;93.20;;;;;;10367204;28;20045;-81
2022/04/11 09:59:43;;;;;;;30.93;16.33;;;8.20;92.60;;;;;;10366844;28;20061;-81
2022/04/11 10:04:46;;;;;;;12.30;7.70;;;8.20;92.90;;;;;;10367420;28;20034;-82
2022/04/11 10:09:47;;;;;;;13.43;8.13;;;8.60;93.30;;;;;;10366533;28;20038;-81
2022/04/11 10:14:48;;;;;;;10.33;5.47;;;9.10;92.60;;;;;;10365841;28;20026;-82
2022/04/11 10:19:49;;;;;;;15.77;8.07;;;9.80;93.40;;;;;;10366691;28;20598;-81
2022/04/11 10:25:05;;;;;;;20.13;11.27;;;9.60;90.80;;;;;;10367147;28;20042;-81
2022/04/11 10:30:25;;;;;;;;;;;8.70;92.40;;;;;;10366108;28;20034;-82
2022/04/11 10:35:34;;;;;;;23.13;9.83;;;8.00;94.90;;;;;;10368148;28;20393;-80
2022/04/11 10:40:37;;;;;;;13.20;6.30;;;8.30;99.90;;;;;;10373512;28;20038;-81
2022/04/11 10:45:41;;;;;;;12.70;7.07;;;8.90;99.90;;;;;;10373682;28;20591;-82
2022/04/11 10:50:43;;;;;;;11.47;6.10;;;9.50;99.90;;;;;;10373159;28;20065;-82
2022/04/11 10:56:07;;;;;;;9.83;4.80;;;10.20;95.50;;;;;;10373451;28;20667;-81
2022/04/11 11:01:08;;;;;;;14.13;7.10;;;10.80;93.60;;;;;;10372859;28;20058;-81
2022/04/11 11:06:17;;;;;;;5.43;3.57;;;10.50;88.80;;;;;;10373729;28;20049;-84
2022/04/11 11:11:23;;;;;;;24.43;10.67;;;9.70;90.10;;;;;;10372168;28;20100;-83
2022/04/11 11:16:33;;;;;;;11.90;5.35;;;9.20;91.70;;;;;;10362672;28;20070;-84
2022/04/11 11:21:35;;;;;;;9.63;4.70;;;9.00;92.90;;;;;;10368154;28;20523;-82
2022/04/11 11:26:48;;;;;;;8.07;5.40;;;9.50;92.70;;;;;;10354830;28;20744;-83
2022/04/11 11:31:51;;;;;;;15.53;5.80;;;9.50;90.30;;;;;;10371462;28;20069;-82
2022/04/11 11:36:56;;;;;;;6.03;3.60;;;9.20;92.20;;;;;;10371854;28;20018;-83
2022/04/11 11:42:05;;;;;;;4.20;3.10;;;10.00;92.80;;;;;;10371325;28;20026;-83
2022/04/11 11:47:06;;;;;;;9.32;3.47;;;10.70;88.60;;;;;;10369430;28;20038;-82
2022/04/11 11:52:14;;;;;;;8.15;5.88;;;11.10;87.00;;;;;;10370631;28;20045;-85
2022/04/11 11:57:17;;;;;;;5.45;2.15;;;10.60;85.00;;;;;;10371356;28;20674;-84
2022/04/11 12:07:38;;;;;;;2.53;1.40;;;10.40;84.10;;;;;;10370977;28;20077;-82
2022/04/11 12:12:39;;;;;;;4.37;1.73;;;9.90;88.50;;;;;;10364149;28;20112;-83
2022/04/11 12:17:43;;;;;;;3.80;2.33;;;10.30;85.90;;;;;;10368700;28;20088;-82
2022/04/11 12:23:11;;;;;;;4.30;2.33;;;10.60;85.10;;;;;;10360653;28;20613;-84
2022/04/11 12:28:26;;;;;;;6.33;2.63;;;10.60;83.10;;;;;;10365995;28;20137;-86
2022/04/11 12:33:31;;;;;;;3.30;1.70;;;9.90;82.60;;;;;;10369725;28;20420;-83
2022/04/11 12:38:51;;;;;;;5.83;2.83;;;9.50;84.50;;;;;;10369818;28;20474;-82
2022/04/11 12:44:11;;;;;;;8.53;4.60;;;9.70;87.10;;;;;;10368649;28;20095;-84
2022/04/11 12:49:18;;;;;;;12.80;5.50;;;10.20;84.30;;;;;;10348802;28;20040;-84
2022/04/11 12:54:19;;;;;;;5.57;2.50;;;10.70;83.00;;;;;;10367827;28;20080;-84
2022/04/11 12:59:29;;;;;;;4.90;2.33;;;10.90;81.10;;;;;;10367852;28;20553;-83
2022/04/11 13:04:29;;;;;;;5.57;2.27;;;10.70;79.40;;;;;;10368756;28;20052;-83
2022/04/11 13:09:31;;;;;;;6.30;2.87;;;10.10;79.50;;;;;;10368888;28;20025;-83
2022/04/11 13:14:31;;;;;;;5.00;2.50;;;9.80;78.80;;;;;;10368213;28;20096;-84
2022/04/11 13:19:32;;;;;;;3.27;2.00;;;10.00;80.40;;;;;;10369112;28;20116;-83
2022/04/11 13:24:33;;;;;;;7.43;2.53;;;10.00;78.90;;;;;;10367778;28;20040;-83
2022/04/11 13:29:34;;;;;;;3.53;1.93;;;10.50;78.20;;;;;;10367812;28;20034;-82
2022/04/11 13:34:34;;;;;;;3.37;1.97;;;10.30;78.60;;;;;;10367060;28;20033;-82
2022/04/11 13:39:36;;;;;;;6.00;2.30;;;9.80;80.50;;;;;;10367785;28;20049;-82
2022/04/11 13:44:37;;;;;;;5.47;1.83;;;10.10;82.70;;;;;;10365663;28;20164;-80
2022/04/11 13:49:38;;;;;;;5.70;2.33;;;10.00;80.00;;;;;;10366574;28;20033;-82
2022/04/11 13:54:38;;;;;;;4.93;1.53;;;9.50;80.80;;;;;;10360716;28;20113;-80
2022/04/11 13:59:40;;;;;;;3.10;1.67;;;9.30;79.80;;;;;;10363289;28;20108;-80
2022/04/11 14:04:41;;;;;;;3.93;2.60;;;9.30;79.50;;;;;;10367303;28;20046;-80
2022/04/11 14:09:41;;;;;;;51.63;19.00;;;9.10;78.80;;;;;;10368159;28;20594;-81
2022/04/11 14:14:42;;;;;;;27.10;12.13;;;9.30;80.30;;;;;;10374994;28;20037;-83
2022/04/11 14:19:43;;;;;;;10.10;4.33;;;9.70;79.80;;;;;;10375172;28;20065;-80
2022/04/11 14:24:43;;;;;;;16.48;6.85;;;10.10;77.90;;;;;;10390081;23;20153;-82
2022/04/11 14:29:44;;;;;;;11.25;4.70;;;10.10;75.70;;;;;;10374742;28;20054;-80
2022/04/11 14:34:44;;;;;;;7.43;3.37;;;10.30;76.40;;;;;;10373054;28;20052;-81
2022/04/11 14:39:45;;;;;;;17.73;8.13;;;10.30;75.90;;;;;;10374116;28;20052;-80
2022/04/11 14:44:46;;;;;;;5.43;2.33;;;10.40;77.00;;;;;;10374087;28;20121;-82
2022/04/11 14:49:48;;;;;;;18.85;8.48;;;10.40;75.70;;;;;;10372851;28;20038;-80
2022/04/11 14:54:48;;;;;;;19.98;7.20;;;10.50;75.70;;;;;;10373192;28;20127;-80
2022/04/11 14:59:49;;;;;;;5.22;2.75;;;10.60;73.20;;;;;;10355423;28;20120;-80
2022/04/11 15:04:50;;;;;;;18.50;7.82;;;10.60;73.70;;;;;;10373543;28;20068;-81
2022/04/11 15:09:53;;;;;;;16.27;7.88;;;10.70;74.70;;;;;;10373944;28;20026;-81
2022/04/11 15:14:54;;;;;;;13.02;5.53;;;10.90;74.30;;;;;;10372789;28;20033;-80
2022/04/11 15:19:54;;;;;;;29.48;13.20;;;10.90;74.80;;;;;;10371182;28;20425;-80
2022/04/11 15:25:01;;;;;;;25.80;11.77;;;10.80;74.50;;;;;;10368190;28;20140;-80
2022/04/11 15:30:03;;;;;;;34.25;14.23;;;10.60;74.00;;;;;;10353800;28;20060;-80
2022/04/11 15:35:04;;;;;;;21.57;10.27;;;10.20;74.80;;;;;;10370262;28;20026;-80
2022/04/11 15:40:06;;;;;;;27.53;10.03;;;10.00;75.30;;;;;;10369443;28;20056;-79
2022/04/11 15:45:07;;;;;;;32.33;14.85;;;9.90;76.50;;;;;;10377062;28;20037;-79
2022/04/11 15:50:09;;;;;;;12.63;5.07;;;9.80;75.80;;;;;;10333025;28;20057;-81
2022/04/11 15:55:10;;;;;;;19.77;8.70;;;9.60;77.00;;;;;;10368914;28;20026;-79
2022/04/11 16:00:11;;;;;;;7.83;3.00;;;9.60;76.90;;;;;;10401635;28;20091;-81
2022/04/11 16:05:12;;;;;;;7.00;3.03;;;9.50;78.10;;;;;;10360975;28;20061;-81
2022/04/11 16:10:13;;;;;;;6.40;3.30;;;9.40;78.60;;;;;;10369461;28;20105;-80
2022/04/11 16:15:14;;;;;;;19.00;8.93;;;9.30;78.90;;;;;;10368650;28;20113;-81
2022/04/11 16:20:14;;;;;;;9.37;3.77;;;9.30;78.80;;;;;;10363452;28;20036;-79
2022/04/11 16:25:15;;;;;;;14.87;5.07;;;9.40;79.20;;;;;;10369000;28;20053;-80
2022/04/11 16:30:16;;;;;;;16.73;8.00;;;9.40;78.30;;;;;;10369478;28;20030;-80
2022/04/11 16:35:16;;;;;;;18.77;8.60;;;9.30;77.80;;;;;;10343314;28;20030;-80
2022/04/11 16:40:18;;;;;;;43.57;19.60;;;9.20;78.10;;;;;;10341885;28;20030;-80
2022/04/11 16:45:19;;;;;;;45.60;19.27;;;9.00;78.60;;;;;;10357714;28;20050;-79
2022/04/11 16:50:20;;;;;;;80.73;26.20;;;8.90;79.30;;;;;;10334323;28;20083;-80
2022/04/11 16:55:22;;;;;;;23.67;12.37;;;8.70;78.50;;;;;;10356754;28;20528;-81
2022/04/11 17:00:22;;;;;;;46.57;19.77;;;8.40;79.30;;;;;;10360721;28;20072;-81
2022/04/11 17:05:23;;;;;;;47.47;21.50;;;8.30;80.10;;;;;;10358177;28;20153;-81
2022/04/11 17:10:24;;;;;;;78.33;33.50;;;8.10;80.10;;;;;;10366371;28;20405;-82
2022/04/11 17:20:46;;;;;;;103.63;51.17;;;7.90;81.30;;;;;;10363521;28;20030;-82
2022/04/11 17:25:46;;;;;;;97.03;48.10;;;7.80;82.50;;;;;;10365064;28;20690;-83
2022/04/11 17:30:47;;;;;;;86.77;39.90;;;7.60;83.60;;;;;;10352186;28;20101;-83
2022/04/11 17:35:53;;;;;;;76.57;32.80;;;7.50;83.60;;;;;;10365220;28;20045;-84
2022/04/11 17:40:55;;;;;;;58.35;24.13;;;7.40;84.50;;;;;;10363736;28;20029;-81
2022/04/11 17:46:00;;;;;;;49.97;23.00;;;7.20;84.80;;;;;;10365488;28;20034;-79
2022/04/11 17:51:03;;;;;;;42.40;20.15;;;6.90;85.80;;;;;;10366569;28;20529;-79
2022/04/11 17:56:05;;;;;;;35.87;17.03;;;6.80;86.40;;;;;;10364765;28;20426;-83
2022/04/11 18:01:07;;;;;;;35.97;17.23;;;6.70;86.20;;;;;;10352550;28;20058;-80
2022/04/11 18:06:08;;;;;;;50.00;23.10;;;6.50;86.70;;;;;;10358499;28;20133;-87
2022/04/11 18:11:09;;;;;;;66.77;30.07;;;6.40;87.20;;;;;;10367148;28;20042;-84
2022/04/11 18:16:09;;;;;;;80.90;35.00;;;6.30;88.00;;;;;;10331916;28;20030;-81
2022/04/11 18:21:10;;;;;;;89.63;35.40;;;6.20;89.50;;;;;;10342806;28;20026;-81
2022/04/11 18:26:11;;;;;;;101.67;43.07;;;6.10;89.90;;;;;;10336622;28;20097;-79
2022/04/11 18:36:32;;;;;;;275.37;133.47;;;6.00;90.30;;;;;;10360689;28;20405;-79
2022/04/11 18:41:34;;;;;;;329.90;168.93;;;6.10;90.60;;;;;;10368434;28;20117;-80
2022/04/11 18:46:37;;;;;;;260.83;138.73;;;6.00;90.70;;;;;;10364545;28;20636;-80
2022/04/11 18:51:37;;;;;;;295.43;164.50;;;6.00;90.70;;;;;;10359245;28;20072;-80
2022/04/11 18:56:38;;;;;;;462.37;301.43;;;6.10;90.70;;;;;;10367985;28;20125;-81
2022/04/11 19:01:38;;;;;;;403.90;247.43;;;6.10;90.60;;;;;;10372001;28;20120;-80
2022/04/11 19:06:39;;;;;;;441.97;258.97;;;6.10;90.70;;;;;;10374848;28;20049;-80
2022/04/11 19:11:40;;;;;;;463.47;276.97;;;6.00;90.80;;;;;;10371162;28;20481;-80
2022/04/11 19:16:40;;;;;;;447.73;271.93;;;6.10;91.00;;;;;;10366626;28;20096;-79
2022/04/11 19:21:41;;;;;;;324.23;174.53;;;6.10;91.00;;;;;;10370693;28;20026;-79
2022/04/11 19:26:41;;;;;;;220.23;112.73;;;6.10;91.00;;;;;;10371012;28;20065;-80
2022/04/11 19:31:42;;;;;;;160.33;79.30;;;6.10;91.00;;;;;;10371610;28;20409;-80
2022/04/11 19:36:45;;;;;;;110.80;55.60;;;6.10;91.00;;;;;;10371377;28;20034;-79
2022/04/11 19:41:46;;;;;;;71.67;35.17;;;6.10;91.10;;;;;;10370734;28;20510;-79
2022/04/11 19:46:47;;;;;;;68.60;33.37;;;6.10;90.80;;;;;;10369787;28;20068;-80
2022/04/11 19:51:48;;;;;;;112.80;50.87;;;6.00;91.20;;;;;;10371342;28;20025;-80
2022/04/11 19:56:48;;;;;;;74.60;37.17;;;5.90;92.20;;;;;;10370553;28;20033;-79
2022/04/11 20:01:49;;;;;;;77.53;35.10;;;5.80;92.80;;;;;;10371140;28;20482;-81
2022/04/11 20:06:49;;;;;;;72.17;30.33;;;5.70;93.60;;;;;;10370035;28;20407;-80
2022/04/11 20:11:50;;;;;;;72.07;31.27;;;5.60;94.10;;;;;;10357230;28;20466;-80
2022/04/11 20:16:51;;;;;;;69.07;31.67;;;5.60;94.50;;;;;;10355980;28;20424;-80
2022/04/11 20:21:52;;;;;;;67.10;31.00;;;5.50;94.80;;;;;;10338205;28;20065;-81
2022/04/11 20:26:52;;;;;;;71.67;33.57;;;5.40;94.90;;;;;;10342624;28;20703;-81
2022/04/11 20:31:53;;;;;;;61.03;28.27;;;5.30;95.50;;;;;;10368307;28;20394;-80
2022/04/11 20:36:54;;;;;;;67.87;32.90;;;5.30;95.60;;;;;;10340932;28;20030;-80
2022/04/11 20:41:54;;;;;;;72.63;32.43;;;5.30;96.00;;;;;;10336580;28;20050;-80
2022/04/11 20:46:57;;;;;;;81.27;37.83;;;5.30;97.10;;;;;;10341484;28;20037;-80
2022/04/11 20:51:59;;;;;;;82.73;37.33;;;5.30;98.60;;;;;;10359448;28;20026;-81
2022/04/11 20:57:00;;;;;;;79.63;37.53;;;5.20;99.30;;;;;;10350808;28;20449;-80
2022/04/11 21:02:01;;;;;;;84.47;38.47;;;5.20;99.90;;;;;;10343953;28;20037;-80
2022/04/11 21:07:02;;;;;;;79.80;36.30;;;5.20;99.90;;;;;;10349073;28;20030;-81
2022/04/11 21:12:03;;;;;;;81.10;35.17;;;5.20;99.90;;;;;;10345804;28;20524;-80
2022/04/11 21:17:04;;;;;;;71.30;33.60;;;5.20;99.90;;;;;;10341355;28;20030;-80
2022/04/11 21:22:06;;;;;;;81.03;36.63;;;5.20;99.90;;;;;;10344771;28;20034;-79
2022/04/11 21:27:07;;;;;;;77.47;35.67;;;5.20;99.90;;;;;;10344043;28;20050;-80
2022/04/11 21:32:08;;;;;;;115.30;51.97;;;5.10;99.90;;;;;;10342409;28;20026;-80
2022/04/11 21:37:08;;;;;;;100.03;44.13;;;5.00;99.90;;;;;;10347037;28;20032;-80
2022/04/11 21:42:09;;;;;;;134.50;58.47;;;4.90;99.90;;;;;;10345379;28;20026;-80
2022/04/11 21:47:10;;;;;;;120.77;55.63;;;4.90;99.90;;;;;;10343322;28;20066;-80
2022/04/11 21:52:10;;;;;;;129.37;54.23;;;4.80;99.90;;;;;;10325817;28;20030;-80
2022/04/11 21:57:11;;;;;;;121.70;54.77;;;4.70;99.90;;;;;;10345400;28;20389;-80
2022/04/11 22:02:12;;;;;;;120.13;53.37;;;4.70;99.90;;;;;;10347727;28;20026;-80
2022/04/11 22:07:13;;;;;;;105.73;45.60;;;4.60;99.90;;;;;;10343809;28;20426;-80
2022/04/11 22:12:13;;;;;;;98.80;44.27;;;4.50;99.90;;;;;;10339011;28;20084;-81
2022/04/11 22:17:14;;;;;;;104.67;46.93;;;4.50;99.90;;;;;;10346389;28;20026;-80
2022/04/11 22:22:15;;;;;;;101.00;45.33;;;4.50;99.90;;;;;;10345572;28;20037;-80
2022/04/11 22:27:15;;;;;;;106.43;48.43;;;4.40;99.90;;;;;;10348139;28;20030;-80
2022/04/11 22:32:16;;;;;;;155.83;69.47;;;4.30;99.90;;;;;;10349029;28;20386;-80
2022/04/11 22:37:17;;;;;;;156.63;69.00;;;4.20;99.90;;;;;;10350128;28;20030;-80
2022/04/11 22:42:17;;;;;;;131.43;59.70;;;4.20;99.90;;;;;;10351758;28;20030;-79
2022/04/11 22:47:18;;;;;;;113.40;50.03;;;4.20;99.90;;;;;;10350912;28;20038;-79
2022/04/11 22:52:19;;;;;;;103.17;46.73;;;4.20;99.90;;;;;;10354200;28;20411;-80
2022/04/11 22:57:19;;;;;;;93.90;43.13;;;4.20;99.90;;;;;;10352408;28;20030;-80
2022/04/11 23:02:20;;;;;;;101.63;46.63;;;4.20;99.90;;;;;;10360581;28;20033;-80
2022/04/11 23:07:21;;;;;;;84.33;41.60;;;4.20;99.90;;;;;;10355463;28;20084;-80
2022/04/11 23:12:23;;;;;;;74.90;36.53;;;4.30;99.90;;;;;;10350885;28;20026;-80
2022/04/11 23:17:24;;;;;;;84.30;39.13;;;4.30;99.90;;;;;;10350469;28;20478;-80
2022/04/11 23:22:24;;;;;;;78.97;38.33;;;4.30;99.90;;;;;;10350004;28;20042;-81
2022/04/11 23:27:25;;;;;;;84.70;40.33;;;4.10;99.90;;;;;;10362630;28;20022;-81
2022/04/11 23:32:26;;;;;;;90.97;41.57;;;4.00;99.90;;;;;;10361966;28;20033;-80
2022/04/11 23:37:26;;;;;;;93.20;45.07;;;4.00;99.90;;;;;;10356530;28;20026;-81
2022/04/11 23:42:27;;;;;;;88.23;42.63;;;3.90;99.90;;;;;;10371198;28;20033;-81
2022/04/11 23:47:27;;;;;;;89.20;43.83;;;3.90;99.90;;;;;;10371337;28;20029;-80
2022/04/11 23:52:28;;;;;;;98.67;47.80;;;3.90;99.90;;;;;;10371268;28;20542;-81
2022/04/11 23:57:29;;;;;;;105.87;53.03;;;3.90;99.90;;;;;;10370931;28;20033;-80
